sensor_id;sensor_type;location;lat;lon;timestamp;P1;durP1;ratioP1;P2;durP2;ratioP2
5688;SDS011;2869;50.432;8.680;2023-04-03T00:01:13;2.67;;;2.47;;
5688;SDS011;2869;50.432;8.680;2023-04-03T00:03:40;3.80;;;2.50;;
5688;SDS011;2869;50.432;8.680;2023-04-03T00:06:08;4.43;;;2.70;;
5688;SDS011;2869;50.432;8.680;2023-04-03T00:08:37;2.50;;;2.30;;
5688;SDS011;2869;50.432;8.680;2023-04-03T00:11:05;2.40;;;2.20;;
5688;SDS011;2869;50.432;8.680;2023-04-03T00:13:32;4.93;;;2.57;;
5688;SDS011;2869;50.432;8.680;2023-04-03T00:15:59;5.13;;;2.50;;
5688;SDS011;2869;50.432;8.680;2023-04-03T00:18:26;3.23;;;2.60;;
5688;SDS011;2869;50.432;8.680;2023-04-03T00:20:53;4.53;;;2.67;;
5688;SDS011;2869;50.432;8.680;2023-04-03T00:23:20;3.23;;;2.30;;
5688;SDS011;2869;50.432;8.680;2023-04-03T00:25:49;3.90;;;2.40;;
5688;SDS011;2869;50.432;8.680;2023-04-03T00:28:16;8.93;;;2.30;;
5688;SDS011;2869;50.432;8.680;2023-04-03T00:30:43;2.57;;;2.07;;
5688;SDS011;2869;50.432;8.680;2023-04-03T00:33:10;1.90;;;1.80;;
5688;SDS011;2869;50.432;8.680;2023-04-03T00:35:37;3.33;;;2.20;;
5688;SDS011;2869;50.432;8.680;2023-04-03T00:38:04;6.83;;;2.23;;
5688;SDS011;2869;50.432;8.680;2023-04-03T00:40:33;2.27;;;2.07;;
5688;SDS011;2869;50.432;8.680;2023-04-03T00:43:05;4.50;;;2.80;;
5688;SDS011;2869;50.432;8.680;2023-04-03T00:45:38;4.60;;;2.07;;
5688;SDS011;2869;50.432;8.680;2023-04-03T00:48:06;5.10;;;2.20;;
5688;SDS011;2869;50.432;8.680;2023-04-03T00:50:40;2.40;;;2.20;;
5688;SDS011;2869;50.432;8.680;2023-04-03T00:53:09;2.40;;;2.20;;
5688;SDS011;2869;50.432;8.680;2023-04-03T00:55:39;3.30;;;2.10;;
5688;SDS011;2869;50.432;8.680;2023-04-03T00:58:09;5.40;;;2.20;;
5688;SDS011;2869;50.432;8.680;2023-04-03T01:00:37;3.33;;;2.07;;
5688;SDS011;2869;50.432;8.680;2023-04-03T01:03:06;5.40;;;2.30;;
5688;SDS011;2869;50.432;8.680;2023-04-03T01:05:33;2.13;;;1.90;;
5688;SDS011;2869;50.432;8.680;2023-04-03T01:08:00;6.70;;;2.13;;
5688;SDS011;2869;50.432;8.680;2023-04-03T01:10:27;3.90;;;2.40;;
5688;SDS011;2869;50.432;8.680;2023-04-03T01:12:54;3.10;;;1.93;;
5688;SDS011;2869;50.432;8.680;2023-04-03T01:15:23;6.30;;;2.20;;
5688;SDS011;2869;50.432;8.680;2023-04-03T01:17:52;3.67;;;2.10;;
5688;SDS011;2869;50.432;8.680;2023-04-03T01:23:23;3.83;;;2.10;;
5688;SDS011;2869;50.432;8.680;2023-04-03T01:25:56;9.07;;;2.60;;
5688;SDS011;2869;50.432;8.680;2023-04-03T01:28:24;5.00;;;1.90;;
5688;SDS011;2869;50.432;8.680;2023-04-03T01:30:56;2.63;;;1.93;;
5688;SDS011;2869;50.432;8.680;2023-04-03T01:33:28;2.50;;;2.00;;
5688;SDS011;2869;50.432;8.680;2023-04-03T01:35:55;4.93;;;2.17;;
5688;SDS011;2869;50.432;8.680;2023-04-03T01:38:22;2.90;;;2.10;;
5688;SDS011;2869;50.432;8.680;2023-04-03T01:40:49;8.00;;;1.93;;
5688;SDS011;2869;50.432;8.680;2023-04-03T01:43:16;4.00;;;2.20;;
5688;SDS011;2869;50.432;8.680;2023-04-03T01:45:42;5.47;;;2.00;;
5688;SDS011;2869;50.432;8.680;2023-04-03T01:48:09;4.00;;;1.97;;
5688;SDS011;2869;50.432;8.680;2023-04-03T01:50:37;3.13;;;1.93;;
5688;SDS011;2869;50.432;8.680;2023-04-03T01:53:04;5.80;;;2.10;;
5688;SDS011;2869;50.432;8.680;2023-04-03T01:55:31;3.63;;;1.87;;
5688;SDS011;2869;50.432;8.680;2023-04-03T01:57:57;7.40;;;1.97;;
5688;SDS011;2869;50.432;8.680;2023-04-03T02:00:24;4.70;;;2.10;;
5688;SDS011;2869;50.432;8.680;2023-04-03T02:02:51;4.70;;;2.10;;
5688;SDS011;2869;50.432;8.680;2023-04-03T02:05:18;3.43;;;2.07;;
5688;SDS011;2869;50.432;8.680;2023-04-03T02:07:46;2.00;;;1.90;;
5688;SDS011;2869;50.432;8.680;2023-04-03T02:10:13;5.10;;;2.20;;
5688;SDS011;2869;50.432;8.680;2023-04-03T02:12:40;2.87;;;1.80;;
5688;SDS011;2869;50.432;8.680;2023-04-03T02:15:07;3.40;;;1.90;;
5688;SDS011;2869;50.432;8.680;2023-04-03T02:17:34;7.87;;;2.20;;
5688;SDS011;2869;50.432;8.680;2023-04-03T02:20:01;7.63;;;1.93;;
5688;SDS011;2869;50.432;8.680;2023-04-03T02:22:28;9.20;;;2.53;;
5688;SDS011;2869;50.432;8.680;2023-04-03T02:24:56;3.80;;;1.97;;
5688;SDS011;2869;50.432;8.680;2023-04-03T02:27:23;3.13;;;2.10;;
5688;SDS011;2869;50.432;8.680;2023-04-03T02:29:50;4.77;;;2.10;;
5688;SDS011;2869;50.432;8.680;2023-04-03T02:32:16;4.43;;;1.60;;
5688;SDS011;2869;50.432;8.680;2023-04-03T02:34:43;2.50;;;1.93;;
5688;SDS011;2869;50.432;8.680;2023-04-03T02:37:10;7.27;;;2.30;;
5688;SDS011;2869;50.432;8.680;2023-04-03T02:39:36;5.73;;;2.00;;
5688;SDS011;2869;50.432;8.680;2023-04-03T02:42:05;8.43;;;2.57;;
5688;SDS011;2869;50.432;8.680;2023-04-03T02:44:32;6.13;;;2.30;;
5688;SDS011;2869;50.432;8.680;2023-04-03T02:46:58;3.90;;;1.97;;
5688;SDS011;2869;50.432;8.680;2023-04-03T02:49:25;3.53;;;1.83;;
5688;SDS011;2869;50.432;8.680;2023-04-03T02:51:52;5.53;;;2.00;;
5688;SDS011;2869;50.432;8.680;2023-04-03T02:54:18;5.23;;;2.17;;
5688;SDS011;2869;50.432;8.680;2023-04-03T02:56:45;3.43;;;2.17;;
5688;SDS011;2869;50.432;8.680;2023-04-03T02:59:13;8.83;;;2.50;;
5688;SDS011;2869;50.432;8.680;2023-04-03T03:01:40;6.77;;;2.60;;
5688;SDS011;2869;50.432;8.680;2023-04-03T03:04:07;4.90;;;2.30;;
5688;SDS011;2869;50.432;8.680;2023-04-03T03:06:33;10.33;;;2.80;;
5688;SDS011;2869;50.432;8.680;2023-04-03T03:09:00;4.40;;;2.30;;
5688;SDS011;2869;50.432;8.680;2023-04-03T03:11:27;10.17;;;2.73;;
5688;SDS011;2869;50.432;8.680;2023-04-03T03:13:53;9.50;;;2.40;;
5688;SDS011;2869;50.432;8.680;2023-04-03T03:16:21;5.97;;;2.33;;
5688;SDS011;2869;50.432;8.680;2023-04-03T03:18:48;7.23;;;2.30;;
5688;SDS011;2869;50.432;8.680;2023-04-03T03:21:14;2.40;;;2.10;;
5688;SDS011;2869;50.432;8.680;2023-04-03T03:23:41;5.20;;;2.37;;
5688;SDS011;2869;50.432;8.680;2023-04-03T03:26:09;6.60;;;2.43;;
5688;SDS011;2869;50.432;8.680;2023-04-03T03:28:37;5.30;;;2.23;;
5688;SDS011;2869;50.432;8.680;2023-04-03T03:31:05;7.90;;;2.53;;
5688;SDS011;2869;50.432;8.680;2023-04-03T03:33:34;5.97;;;2.30;;
5688;SDS011;2869;50.432;8.680;2023-04-03T03:36:00;8.30;;;2.80;;
5688;SDS011;2869;50.432;8.680;2023-04-03T03:38:27;7.60;;;2.60;;
5688;SDS011;2869;50.432;8.680;2023-04-03T03:40:54;9.00;;;2.70;;
5688;SDS011;2869;50.432;8.680;2023-04-03T03:43:21;10.50;;;3.10;;
5688;SDS011;2869;50.432;8.680;2023-04-03T03:45:49;3.20;;;2.30;;
5688;SDS011;2869;50.432;8.680;2023-04-03T03:48:17;5.80;;;2.33;;
5688;SDS011;2869;50.432;8.680;2023-04-03T03:50:45;4.73;;;2.70;;
5688;SDS011;2869;50.432;8.680;2023-04-03T03:53:11;8.10;;;2.90;;
5688;SDS011;2869;50.432;8.680;2023-04-03T03:55:38;7.90;;;2.87;;
5688;SDS011;2869;50.432;8.680;2023-04-03T03:58:05;7.40;;;2.43;;
5688;SDS011;2869;50.432;8.680;2023-04-03T04:00:31;8.20;;;2.30;;
5688;SDS011;2869;50.432;8.680;2023-04-03T04:02:58;5.87;;;2.40;;
5688;SDS011;2869;50.432;8.680;2023-04-03T04:05:25;6.00;;;2.47;;
5688;SDS011;2869;50.432;8.680;2023-04-03T04:07:53;6.30;;;2.37;;
5688;SDS011;2869;50.432;8.680;2023-04-03T04:10:20;3.63;;;2.20;;
5688;SDS011;2869;50.432;8.680;2023-04-03T04:12:47;4.43;;;2.00;;
5688;SDS011;2869;50.432;8.680;2023-04-03T04:15:16;7.53;;;2.50;;
5688;SDS011;2869;50.432;8.680;2023-04-03T04:17:42;6.00;;;2.10;;
5688;SDS011;2869;50.432;8.680;2023-04-03T04:20:10;4.73;;;2.03;;
5688;SDS011;2869;50.432;8.680;2023-04-03T04:22:37;4.50;;;2.07;;
5688;SDS011;2869;50.432;8.680;2023-04-03T04:25:05;16.83;;;2.77;;
5688;SDS011;2869;50.432;8.680;2023-04-03T04:27:32;3.80;;;2.03;;
5688;SDS011;2869;50.432;8.680;2023-04-03T04:29:59;4.00;;;2.70;;
5688;SDS011;2869;50.432;8.680;2023-04-03T04:32:25;9.00;;;2.67;;
5688;SDS011;2869;50.432;8.680;2023-04-03T04:34:52;4.13;;;2.73;;
5688;SDS011;2869;50.432;8.680;2023-04-03T04:37:19;7.67;;;2.13;;
5688;SDS011;2869;50.432;8.680;2023-04-03T04:39:45;5.30;;;2.67;;
5688;SDS011;2869;50.432;8.680;2023-04-03T04:42:13;5.63;;;2.33;;
5688;SDS011;2869;50.432;8.680;2023-04-03T04:44:40;4.93;;;2.33;;
5688;SDS011;2869;50.432;8.680;2023-04-03T04:47:07;8.83;;;2.97;;
5688;SDS011;2869;50.432;8.680;2023-04-03T04:49:33;2.60;;;2.10;;
5688;SDS011;2869;50.432;8.680;2023-04-03T04:52:00;4.10;;;2.60;;
5688;SDS011;2869;50.432;8.680;2023-04-03T04:54:26;5.53;;;2.40;;
5688;SDS011;2869;50.432;8.680;2023-04-03T04:56:53;3.63;;;2.53;;
5688;SDS011;2869;50.432;8.680;2023-04-03T04:59:21;5.43;;;2.50;;
5688;SDS011;2869;50.432;8.680;2023-04-03T05:01:48;5.97;;;2.10;;
5688;SDS011;2869;50.432;8.680;2023-04-03T05:04:14;5.27;;;2.80;;
5688;SDS011;2869;50.432;8.680;2023-04-03T05:06:41;6.40;;;3.10;;
5688;SDS011;2869;50.432;8.680;2023-04-03T05:09:08;9.90;;;3.03;;
5688;SDS011;2869;50.432;8.680;2023-04-03T05:11:34;7.10;;;2.90;;
5688;SDS011;2869;50.432;8.680;2023-04-03T05:14:01;9.53;;;3.00;;
5688;SDS011;2869;50.432;8.680;2023-04-03T05:16:31;6.70;;;3.00;;
5688;SDS011;2869;50.432;8.680;2023-04-03T05:18:58;9.73;;;3.30;;
5688;SDS011;2869;50.432;8.680;2023-04-03T05:21:24;8.77;;;3.77;;
5688;SDS011;2869;50.432;8.680;2023-04-03T05:23:52;6.30;;;3.07;;
5688;SDS011;2869;50.432;8.680;2023-04-03T05:26:19;11.60;;;3.27;;
5688;SDS011;2869;50.432;8.680;2023-04-03T05:28:46;6.60;;;3.03;;
5688;SDS011;2869;50.432;8.680;2023-04-03T05:31:13;6.60;;;3.00;;
5688;SDS011;2869;50.432;8.680;2023-04-03T05:33:41;5.70;;;3.10;;
5688;SDS011;2869;50.432;8.680;2023-04-03T05:36:08;10.93;;;3.17;;
5688;SDS011;2869;50.432;8.680;2023-04-03T05:38:35;14.10;;;3.20;;
5688;SDS011;2869;50.432;8.680;2023-04-03T05:41:01;5.70;;;3.20;;
5688;SDS011;2869;50.432;8.680;2023-04-03T05:43:28;6.80;;;3.10;;
5688;SDS011;2869;50.432;8.680;2023-04-03T05:45:55;7.80;;;3.00;;
5688;SDS011;2869;50.432;8.680;2023-04-03T05:48:21;5.33;;;3.03;;
5688;SDS011;2869;50.432;8.680;2023-04-03T05:50:50;5.97;;;3.07;;
5688;SDS011;2869;50.432;8.680;2023-04-03T05:53:17;8.60;;;3.33;;
5688;SDS011;2869;50.432;8.680;2023-04-03T05:55:47;9.97;;;3.40;;
5688;SDS011;2869;50.432;8.680;2023-04-03T05:58:14;6.40;;;3.20;;
5688;SDS011;2869;50.432;8.680;2023-04-03T06:00:40;6.80;;;2.77;;
5688;SDS011;2869;50.432;8.680;2023-04-03T06:03:07;11.43;;;3.30;;
5688;SDS011;2869;50.432;8.680;2023-04-03T06:05:34;7.20;;;3.47;;
5688;SDS011;2869;50.432;8.680;2023-04-03T06:08:02;5.03;;;3.60;;
5688;SDS011;2869;50.432;8.680;2023-04-03T06:10:29;7.77;;;3.37;;
5688;SDS011;2869;50.432;8.680;2023-04-03T06:12:56;8.50;;;2.80;;
5688;SDS011;2869;50.432;8.680;2023-04-03T06:15:22;11.57;;;3.67;;
5688;SDS011;2869;50.432;8.680;2023-04-03T06:17:49;5.97;;;3.00;;
5688;SDS011;2869;50.432;8.680;2023-04-03T06:20:16;6.17;;;3.40;;
5688;SDS011;2869;50.432;8.680;2023-04-03T06:22:43;5.37;;;2.87;;
5688;SDS011;2869;50.432;8.680;2023-04-03T06:25:11;8.87;;;3.70;;
5688;SDS011;2869;50.432;8.680;2023-04-03T06:27:38;8.90;;;3.40;;
5688;SDS011;2869;50.432;8.680;2023-04-03T06:30:05;7.20;;;3.60;;
5688;SDS011;2869;50.432;8.680;2023-04-03T06:32:33;6.77;;;3.30;;
5688;SDS011;2869;50.432;8.680;2023-04-03T06:35:00;7.73;;;4.23;;
5688;SDS011;2869;50.432;8.680;2023-04-03T06:37:26;14.13;;;3.90;;
5688;SDS011;2869;50.432;8.680;2023-04-03T06:39:53;8.97;;;3.77;;
5688;SDS011;2869;50.432;8.680;2023-04-03T06:42:22;5.67;;;3.60;;
5688;SDS011;2869;50.432;8.680;2023-04-03T06:44:48;9.67;;;3.70;;
5688;SDS011;2869;50.432;8.680;2023-04-03T06:47:16;9.50;;;3.90;;
5688;SDS011;2869;50.432;8.680;2023-04-03T06:49:43;16.40;;;4.00;;
5688;SDS011;2869;50.432;8.680;2023-04-03T06:52:10;6.30;;;3.90;;
5688;SDS011;2869;50.432;8.680;2023-04-03T06:54:38;4.93;;;3.43;;
5688;SDS011;2869;50.432;8.680;2023-04-03T06:57:05;5.33;;;3.57;;
5688;SDS011;2869;50.432;8.680;2023-04-03T06:59:33;9.20;;;3.87;;
5688;SDS011;2869;50.432;8.680;2023-04-03T07:01:59;6.00;;;3.90;;
5688;SDS011;2869;50.432;8.680;2023-04-03T07:04:26;6.90;;;3.80;;
5688;SDS011;2869;50.432;8.680;2023-04-03T07:06:53;7.47;;;3.53;;
5688;SDS011;2869;50.432;8.680;2023-04-03T07:09:19;7.67;;;3.97;;
5688;SDS011;2869;50.432;8.680;2023-04-03T07:11:46;7.27;;;3.53;;
5688;SDS011;2869;50.432;8.680;2023-04-03T07:14:13;6.53;;;3.70;;
5688;SDS011;2869;50.432;8.680;2023-04-03T07:16:41;12.10;;;3.93;;
5688;SDS011;2869;50.432;8.680;2023-04-03T07:19:07;3.40;;;3.00;;
5688;SDS011;2869;50.432;8.680;2023-04-03T07:21:34;7.20;;;3.60;;
5688;SDS011;2869;50.432;8.680;2023-04-03T07:24:01;5.23;;;3.00;;
5688;SDS011;2869;50.432;8.680;2023-04-03T07:26:28;18.40;;;3.63;;
5688;SDS011;2869;50.432;8.680;2023-04-03T07:28:55;9.60;;;3.57;;
5688;SDS011;2869;50.432;8.680;2023-04-03T07:31:22;7.50;;;3.87;;
5688;SDS011;2869;50.432;8.680;2023-04-03T07:33:51;6.93;;;3.90;;
5688;SDS011;2869;50.432;8.680;2023-04-03T07:36:18;6.43;;;3.90;;
5688;SDS011;2869;50.432;8.680;2023-04-03T07:38:46;10.50;;;3.30;;
5688;SDS011;2869;50.432;8.680;2023-04-03T07:41:13;8.23;;;3.53;;
5688;SDS011;2869;50.432;8.680;2023-04-03T07:43:42;5.23;;;3.07;;
5688;SDS011;2869;50.432;8.680;2023-04-03T07:46:10;6.00;;;3.73;;
5688;SDS011;2869;50.432;8.680;2023-04-03T07:48:37;6.50;;;3.30;;
5688;SDS011;2869;50.432;8.680;2023-04-03T07:51:05;6.73;;;2.97;;
5688;SDS011;2869;50.432;8.680;2023-04-03T07:53:31;13.70;;;3.77;;
5688;SDS011;2869;50.432;8.680;2023-04-03T07:55:59;4.97;;;3.43;;
5688;SDS011;2869;50.432;8.680;2023-04-03T07:58:27;3.70;;;2.50;;
5688;SDS011;2869;50.432;8.680;2023-04-03T08:00:54;10.50;;;3.30;;
5688;SDS011;2869;50.432;8.680;2023-04-03T08:03:21;8.37;;;3.70;;
5688;SDS011;2869;50.432;8.680;2023-04-03T08:05:48;8.20;;;3.27;;
5688;SDS011;2869;50.432;8.680;2023-04-03T08:08:17;7.00;;;3.50;;
5688;SDS011;2869;50.432;8.680;2023-04-03T08:10:47;3.20;;;2.90;;
5688;SDS011;2869;50.432;8.680;2023-04-03T08:13:15;11.53;;;3.40;;
5688;SDS011;2869;50.432;8.680;2023-04-03T08:15:42;10.40;;;3.53;;
5688;SDS011;2869;50.432;8.680;2023-04-03T08:18:09;3.93;;;2.97;;
5688;SDS011;2869;50.432;8.680;2023-04-03T08:20:37;6.13;;;3.00;;
5688;SDS011;2869;50.432;8.680;2023-04-03T08:23:04;8.00;;;2.90;;
5688;SDS011;2869;50.432;8.680;2023-04-03T08:25:32;4.50;;;2.70;;
5688;SDS011;2869;50.432;8.680;2023-04-03T08:27:59;3.00;;;2.70;;
5688;SDS011;2869;50.432;8.680;2023-04-03T08:30:26;3.53;;;2.63;;
5688;SDS011;2869;50.432;8.680;2023-04-03T08:32:53;7.43;;;3.17;;
5688;SDS011;2869;50.432;8.680;2023-04-03T08:35:20;4.70;;;2.33;;
5688;SDS011;2869;50.432;8.680;2023-04-03T08:37:47;5.73;;;3.00;;
5688;SDS011;2869;50.432;8.680;2023-04-03T08:40:14;3.77;;;2.53;;
5688;SDS011;2869;50.432;8.680;2023-04-03T08:42:47;3.13;;;2.83;;
5688;SDS011;2869;50.432;8.680;2023-04-03T08:45:21;4.10;;;3.10;;
5688;SDS011;2869;50.432;8.680;2023-04-03T08:47:53;3.07;;;2.80;;
5688;SDS011;2869;50.432;8.680;2023-04-03T08:50:26;6.37;;;2.70;;
5688;SDS011;2869;50.432;8.680;2023-04-03T08:52:58;4.50;;;3.13;;
5688;SDS011;2869;50.432;8.680;2023-04-03T08:55:27;6.13;;;3.00;;
5688;SDS011;2869;50.432;8.680;2023-04-03T08:57:59;7.63;;;3.60;;
5688;SDS011;2869;50.432;8.680;2023-04-03T09:00:28;4.33;;;2.50;;
5688;SDS011;2869;50.432;8.680;2023-04-03T09:02:59;3.73;;;3.00;;
5688;SDS011;2869;50.432;8.680;2023-04-03T09:05:29;7.20;;;3.90;;
5688;SDS011;2869;50.432;8.680;2023-04-03T09:08:07;6.03;;;3.03;;
5688;SDS011;2869;50.432;8.680;2023-04-03T09:10:40;5.80;;;3.20;;
5688;SDS011;2869;50.432;8.680;2023-04-03T09:13:10;7.60;;;3.47;;
5688;SDS011;2869;50.432;8.680;2023-04-03T09:15:44;6.33;;;2.90;;
5688;SDS011;2869;50.432;8.680;2023-04-03T09:18:12;4.63;;;2.90;;
5688;SDS011;2869;50.432;8.680;2023-04-03T09:20:44;4.07;;;2.90;;
5688;SDS011;2869;50.432;8.680;2023-04-03T09:23:18;5.30;;;3.03;;
5688;SDS011;2869;50.432;8.680;2023-04-03T09:25:49;3.33;;;2.73;;
5688;SDS011;2869;50.432;8.680;2023-04-03T09:28:20;6.07;;;3.20;;
5688;SDS011;2869;50.432;8.680;2023-04-03T09:30:47;4.90;;;3.30;;
5688;SDS011;2869;50.432;8.680;2023-04-03T09:33:13;5.07;;;3.03;;
5688;SDS011;2869;50.432;8.680;2023-04-03T09:35:41;5.13;;;2.90;;
5688;SDS011;2869;50.432;8.680;2023-04-03T09:38:16;5.50;;;2.93;;
5688;SDS011;2869;50.432;8.680;2023-04-03T09:40:45;5.13;;;3.00;;
5688;SDS011;2869;50.432;8.680;2023-04-03T09:43:24;5.07;;;2.97;;
5688;SDS011;2869;50.432;8.680;2023-04-03T09:45:53;3.70;;;3.00;;
5688;SDS011;2869;50.432;8.680;2023-04-03T09:48:22;4.23;;;3.13;;
5688;SDS011;2869;50.432;8.680;2023-04-03T09:50:53;4.90;;;3.00;;
5688;SDS011;2869;50.432;8.680;2023-04-03T09:53:28;5.10;;;2.80;;
5688;SDS011;2869;50.432;8.680;2023-04-03T09:55:57;3.77;;;3.10;;
5688;SDS011;2869;50.432;8.680;2023-04-03T09:58:27;11.70;;;3.17;;
5688;SDS011;2869;50.432;8.680;2023-04-03T10:00:56;3.80;;;2.60;;
5688;SDS011;2869;50.432;8.680;2023-04-03T10:03:25;4.07;;;2.83;;
5688;SDS011;2869;50.432;8.680;2023-04-03T10:05:54;3.23;;;2.60;;
5688;SDS011;2869;50.432;8.680;2023-04-03T10:08:24;5.23;;;2.73;;
5688;SDS011;2869;50.432;8.680;2023-04-03T10:11:07;3.57;;;2.80;;
5688;SDS011;2869;50.432;8.680;2023-04-03T10:13:37;3.63;;;2.93;;
5688;SDS011;2869;50.432;8.680;2023-04-03T10:16:17;4.63;;;3.30;;
5688;SDS011;2869;50.432;8.680;2023-04-03T10:18:48;3.17;;;2.40;;
5688;SDS011;2869;50.432;8.680;2023-04-03T10:21:24;3.27;;;2.97;;
5688;SDS011;2869;50.432;8.680;2023-04-03T10:24:02;11.03;;;3.00;;
5688;SDS011;2869;50.432;8.680;2023-04-03T10:26:36;5.67;;;3.10;;
5688;SDS011;2869;50.432;8.680;2023-04-03T10:29:14;5.30;;;2.60;;
5688;SDS011;2869;50.432;8.680;2023-04-03T10:31:52;4.00;;;2.83;;
5688;SDS011;2869;50.432;8.680;2023-04-03T10:34:27;2.70;;;2.50;;
5688;SDS011;2869;50.432;8.680;2023-04-03T10:36:57;3.07;;;2.70;;
5688;SDS011;2869;50.432;8.680;2023-04-03T10:39:31;6.03;;;3.33;;
5688;SDS011;2869;50.432;8.680;2023-04-03T10:42:06;6.20;;;3.23;;
5688;SDS011;2869;50.432;8.680;2023-04-03T10:44:42;8.90;;;3.00;;
5688;SDS011;2869;50.432;8.680;2023-04-03T10:47:25;3.43;;;2.93;;
5688;SDS011;2869;50.432;8.680;2023-04-03T10:50:00;6.83;;;3.50;;
5688;SDS011;2869;50.432;8.680;2023-04-03T10:52:35;5.23;;;3.07;;
5688;SDS011;2869;50.432;8.680;2023-04-03T10:55:14;5.20;;;3.30;;
5688;SDS011;2869;50.432;8.680;2023-04-03T10:57:50;4.93;;;3.10;;
5688;SDS011;2869;50.432;8.680;2023-04-03T11:00:21;3.43;;;3.13;;
5688;SDS011;2869;50.432;8.680;2023-04-03T11:02:53;3.33;;;2.77;;
5688;SDS011;2869;50.432;8.680;2023-04-03T11:05:26;4.03;;;2.90;;
5688;SDS011;2869;50.432;8.680;2023-04-03T11:08:01;3.70;;;2.90;;
5688;SDS011;2869;50.432;8.680;2023-04-03T11:10:35;2.70;;;2.30;;
5688;SDS011;2869;50.432;8.680;2023-04-03T11:13:08;2.87;;;2.67;;
5688;SDS011;2869;50.432;8.680;2023-04-03T11:15:40;3.43;;;2.70;;
5688;SDS011;2869;50.432;8.680;2023-04-03T11:18:09;6.93;;;3.17;;
5688;SDS011;2869;50.432;8.680;2023-04-03T11:20:40;3.83;;;3.03;;
5688;SDS011;2869;50.432;8.680;2023-04-03T11:23:12;5.07;;;2.67;;
5688;SDS011;2869;50.432;8.680;2023-04-03T11:25:47;4.90;;;2.90;;
5688;SDS011;2869;50.432;8.680;2023-04-03T11:28:18;5.00;;;3.20;;
5688;SDS011;2869;50.432;8.680;2023-04-03T11:30:48;3.27;;;2.80;;
5688;SDS011;2869;50.432;8.680;2023-04-03T11:33:21;3.03;;;2.30;;
5688;SDS011;2869;50.432;8.680;2023-04-03T11:35:57;3.90;;;2.50;;
5688;SDS011;2869;50.432;8.680;2023-04-03T11:38:27;5.80;;;3.10;;
5688;SDS011;2869;50.432;8.680;2023-04-03T11:40:59;5.53;;;2.50;;
5688;SDS011;2869;50.432;8.680;2023-04-03T11:43:27;2.90;;;2.47;;
5688;SDS011;2869;50.432;8.680;2023-04-03T11:45:58;3.83;;;3.00;;
5688;SDS011;2869;50.432;8.680;2023-04-03T11:48:47;3.83;;;2.07;;
5688;SDS011;2869;50.432;8.680;2023-04-03T11:51:38;2.60;;;2.40;;
5688;SDS011;2869;50.432;8.680;2023-04-03T12:03:54;3.40;;;2.50;;
5688;SDS011;2869;50.432;8.680;2023-04-03T12:09:56;4.80;;;2.70;;
5688;SDS011;2869;50.432;8.680;2023-04-03T12:12:29;3.87;;;2.20;;
5688;SDS011;2869;50.432;8.680;2023-04-03T12:15:21;3.90;;;2.63;;
5688;SDS011;2869;50.432;8.680;2023-04-03T12:21:17;7.57;;;3.27;;
5688;SDS011;2869;50.432;8.680;2023-04-03T12:24:03;3.53;;;2.57;;
5688;SDS011;2869;50.432;8.680;2023-04-03T12:26:50;2.57;;;2.30;;
5688;SDS011;2869;50.432;8.680;2023-04-03T12:29:29;3.27;;;2.10;;
5688;SDS011;2869;50.432;8.680;2023-04-03T12:32:05;3.80;;;2.10;;
5688;SDS011;2869;50.432;8.680;2023-04-03T12:34:51;2.03;;;1.87;;
5688;SDS011;2869;50.432;8.680;2023-04-03T12:37:37;2.47;;;2.27;;
5688;SDS011;2869;50.432;8.680;2023-04-03T12:40:15;2.20;;;2.00;;
5688;SDS011;2869;50.432;8.680;2023-04-03T12:43:00;6.70;;;2.30;;
5688;SDS011;2869;50.432;8.680;2023-04-03T12:45:39;3.73;;;2.40;;
5688;SDS011;2869;50.432;8.680;2023-04-03T12:48:12;2.87;;;2.20;;
5688;SDS011;2869;50.432;8.680;2023-04-03T12:50:41;2.30;;;1.90;;
5688;SDS011;2869;50.432;8.680;2023-04-03T12:53:13;2.53;;;2.20;;
5688;SDS011;2869;50.432;8.680;2023-04-03T12:55:43;2.90;;;1.80;;
5688;SDS011;2869;50.432;8.680;2023-04-03T12:58:13;3.10;;;1.90;;
5688;SDS011;2869;50.432;8.680;2023-04-03T13:00:42;9.50;;;2.47;;
5688;SDS011;2869;50.432;8.680;2023-04-03T13:03:18;3.63;;;2.10;;
5688;SDS011;2869;50.432;8.680;2023-04-03T13:05:48;2.03;;;1.80;;
5688;SDS011;2869;50.432;8.680;2023-04-03T13:08:16;2.33;;;1.93;;
5688;SDS011;2869;50.432;8.680;2023-04-03T13:10:49;3.33;;;1.90;;
5688;SDS011;2869;50.432;8.680;2023-04-03T13:13:20;4.30;;;2.13;;
5688;SDS011;2869;50.432;8.680;2023-04-03T13:15:47;5.87;;;2.23;;
5688;SDS011;2869;50.432;8.680;2023-04-03T13:18:25;3.97;;;2.20;;
5688;SDS011;2869;50.432;8.680;2023-04-03T13:20:57;3.97;;;2.03;;
5688;SDS011;2869;50.432;8.680;2023-04-03T13:23:29;5.10;;;2.20;;
5688;SDS011;2869;50.432;8.680;2023-04-03T13:25:56;2.90;;;2.20;;
5688;SDS011;2869;50.432;8.680;2023-04-03T13:28:27;4.67;;;2.00;;
5688;SDS011;2869;50.432;8.680;2023-04-03T13:30:56;3.97;;;2.00;;
5688;SDS011;2869;50.432;8.680;2023-04-03T13:33:29;2.03;;;1.87;;
5688;SDS011;2869;50.432;8.680;2023-04-03T13:36:16;2.70;;;1.77;;
5688;SDS011;2869;50.432;8.680;2023-04-03T13:38:46;1.97;;;1.83;;
5688;SDS011;2869;50.432;8.680;2023-04-03T13:41:26;2.60;;;2.07;;
5688;SDS011;2869;50.432;8.680;2023-04-03T13:43:55;2.80;;;2.00;;
5688;SDS011;2869;50.432;8.680;2023-04-03T13:46:23;4.10;;;2.00;;
5688;SDS011;2869;50.432;8.680;2023-04-03T13:48:53;4.33;;;3.03;;
5688;SDS011;2869;50.432;8.680;2023-04-03T13:51:22;2.27;;;2.07;;
5688;SDS011;2869;50.432;8.680;2023-04-03T13:53:53;5.57;;;2.23;;
5688;SDS011;2869;50.432;8.680;2023-04-03T13:56:26;2.57;;;2.10;;
5688;SDS011;2869;50.432;8.680;2023-04-03T13:58:58;5.30;;;2.37;;
5688;SDS011;2869;50.432;8.680;2023-04-03T14:01:46;4.77;;;1.93;;
5688;SDS011;2869;50.432;8.680;2023-04-03T14:04:17;3.17;;;2.00;;
5688;SDS011;2869;50.432;8.680;2023-04-03T14:06:46;2.10;;;1.90;;
5688;SDS011;2869;50.432;8.680;2023-04-03T14:09:15;3.33;;;1.80;;
5688;SDS011;2869;50.432;8.680;2023-04-03T14:11:43;2.90;;;2.17;;
5688;SDS011;2869;50.432;8.680;2023-04-03T14:14:12;2.97;;;1.83;;
5688;SDS011;2869;50.432;8.680;2023-04-03T14:16:42;3.97;;;1.90;;
5688;SDS011;2869;50.432;8.680;2023-04-03T14:19:22;5.60;;;2.60;;
5688;SDS011;2869;50.432;8.680;2023-04-03T14:21:50;2.77;;;1.80;;
5688;SDS011;2869;50.432;8.680;2023-04-03T14:24:19;5.77;;;2.27;;
5688;SDS011;2869;50.432;8.680;2023-04-03T14:26:47;5.93;;;1.90;;
5688;SDS011;2869;50.432;8.680;2023-04-03T14:29:14;2.27;;;2.10;;
5688;SDS011;2869;50.432;8.680;2023-04-03T14:31:42;8.80;;;2.70;;
5688;SDS011;2869;50.432;8.680;2023-04-03T14:34:10;4.40;;;1.93;;
5688;SDS011;2869;50.432;8.680;2023-04-03T14:36:37;6.20;;;2.40;;
5688;SDS011;2869;50.432;8.680;2023-04-03T14:39:05;3.80;;;2.03;;
5688;SDS011;2869;50.432;8.680;2023-04-03T14:41:35;3.10;;;2.10;;
5688;SDS011;2869;50.432;8.680;2023-04-03T14:44:01;3.17;;;1.90;;
5688;SDS011;2869;50.432;8.680;2023-04-03T14:46:30;5.60;;;2.70;;
5688;SDS011;2869;50.432;8.680;2023-04-03T14:48:58;3.20;;;1.70;;
5688;SDS011;2869;50.432;8.680;2023-04-03T14:51:25;2.97;;;2.00;;
5688;SDS011;2869;50.432;8.680;2023-04-03T14:53:52;2.37;;;1.90;;
5688;SDS011;2869;50.432;8.680;2023-04-03T14:56:21;4.50;;;2.30;;
5688;SDS011;2869;50.432;8.680;2023-04-03T14:58:52;2.03;;;1.83;;
5688;SDS011;2869;50.432;8.680;2023-04-03T15:01:22;3.40;;;2.07;;
5688;SDS011;2869;50.432;8.680;2023-04-03T15:03:49;3.77;;;2.10;;
5688;SDS011;2869;50.432;8.680;2023-04-03T15:06:15;2.10;;;1.90;;
5688;SDS011;2869;50.432;8.680;2023-04-03T15:08:42;4.07;;;2.00;;
5688;SDS011;2869;50.432;8.680;2023-04-03T15:11:11;3.80;;;1.70;;
5688;SDS011;2869;50.432;8.680;2023-04-03T15:13:39;1.80;;;1.70;;
5688;SDS011;2869;50.432;8.680;2023-04-03T15:16:11;4.53;;;2.13;;
5688;SDS011;2869;50.432;8.680;2023-04-03T15:18:41;3.70;;;2.20;;
5688;SDS011;2869;50.432;8.680;2023-04-03T15:21:08;3.60;;;2.13;;
5688;SDS011;2869;50.432;8.680;2023-04-03T15:23:34;7.70;;;2.00;;
5688;SDS011;2869;50.432;8.680;2023-04-03T15:26:01;2.10;;;1.67;;
5688;SDS011;2869;50.432;8.680;2023-04-03T15:28:29;6.90;;;2.17;;
5688;SDS011;2869;50.432;8.680;2023-04-03T15:30:58;5.00;;;2.17;;
5688;SDS011;2869;50.432;8.680;2023-04-03T15:33:26;10.00;;;2.00;;
5688;SDS011;2869;50.432;8.680;2023-04-03T15:35:53;1.70;;;1.60;;
5688;SDS011;2869;50.432;8.680;2023-04-03T15:38:20;3.57;;;2.20;;
5688;SDS011;2869;50.432;8.680;2023-04-03T15:40:47;2.33;;;1.90;;
5688;SDS011;2869;50.432;8.680;2023-04-03T15:43:14;2.50;;;1.90;;
5688;SDS011;2869;50.432;8.680;2023-04-03T15:45:41;2.63;;;2.00;;
5688;SDS011;2869;50.432;8.680;2023-04-03T15:48:09;2.60;;;2.17;;